Woomera, Australia
Current Conditions -  °F | °C
As of 10:30 AM on Tuesday 23 Dec 2014 (Local Time) from YPWR Reporting Station
Overcast Overcast  
Wind Chill: 70°   Ceiling: 2000
Heat Index: 70°   Visibility: 6mi
Dew Point: 57°   Wind: 16mph
Humidity: 64%   Direction: 200°SSW
Pressure: 29.94"   Gusts: NA
Location:  31.2°S, 136.82°E
Report Text: YPWR 230030Z 20014KT 9999 OVC020 21/14 Q1014
Loading
Personal Weather Stations






























Interactive Weather Map New forecast layout! Learn more

10-Day Weather Forecast

Advertisements
Track Severe Weather on mobile